sensor_id;sensor_type;location;lat;lon;timestamp;pressure;altitude;pressure_sealevel;temperature;humidity
35248;BME280;21380;52.194;20.520;2023-05-07T00:01:56;101114.25;;;17.90;53.07
35248;BME280;21380;52.194;20.520;2023-05-07T00:04:22;101116.88;;;17.90;53.18
35248;BME280;21380;52.194;20.520;2023-05-07T00:06:48;101115.09;;;17.89;52.95
35248;BME280;21380;52.194;20.520;2023-05-07T00:09:14;101125.53;;;17.89;53.02
35248;BME280;21380;52.194;20.520;2023-05-07T00:11:40;101102.72;;;17.80;53.26
35248;BME280;21380;52.194;20.520;2023-05-07T00:14:05;101124.63;;;17.89;53.11
35248;BME280;21380;52.194;20.520;2023-05-07T00:16:32;101115.84;;;17.83;52.89
35248;BME280;21380;52.194;20.520;2023-05-07T00:18:57;101116.72;;;17.84;53.12
35248;BME280;21380;52.194;20.520;2023-05-07T00:21:23;101110.56;;;17.80;53.24
35248;BME280;21380;52.194;20.520;2023-05-07T00:23:53;101112.22;;;17.77;53.05
35248;BME280;21380;52.194;20.520;2023-05-07T00:26:19;101106.19;;;17.79;53.00
35248;BME280;21380;52.194;20.520;2023-05-07T00:28:44;101121.94;;;17.84;53.10
35248;BME280;21380;52.194;20.520;2023-05-07T00:31:10;101127.22;;;17.87;52.92
35248;BME280;21380;52.194;20.520;2023-05-07T00:33:37;101127.22;;;17.87;52.94
35248;BME280;21380;52.194;20.520;2023-05-07T00:36:03;101136.78;;;17.87;53.19
35248;BME280;21380;52.194;20.520;2023-05-07T00:38:29;101118.34;;;17.79;53.02
35248;BME280;21380;52.194;20.520;2023-05-07T00:40:55;101125.41;;;17.83;53.06
35248;BME280;21380;52.194;20.520;2023-05-07T00:43:22;101135.84;;;17.83;52.86
35248;BME280;21380;52.194;20.520;2023-05-07T00:45:48;101139.31;;;17.83;52.83
35248;BME280;21380;52.194;20.520;2023-05-07T00:48:14;101136.72;;;17.83;52.92
35248;BME280;21380;52.194;20.520;2023-05-07T00:50:40;101138.34;;;17.78;52.96
35248;BME280;21380;52.194;20.520;2023-05-07T00:53:07;101151.56;;;17.86;52.79
35248;BME280;21380;52.194;20.520;2023-05-07T00:55:33;101159.38;;;17.86;52.83
35248;BME280;21380;52.194;20.520;2023-05-07T00:57:59;101154.09;;;17.81;53.31
35248;BME280;21380;52.194;20.520;2023-05-07T01:00:25;101165.44;;;17.85;52.87
35248;BME280;21380;52.194;20.520;2023-05-07T01:02:51;101158.50;;;17.84;53.08
35248;BME280;21380;52.194;20.520;2023-05-07T01:05:18;101146.16;;;17.77;52.87
35248;BME280;21380;52.194;20.520;2023-05-07T01:07:46;101155.81;;;17.82;52.94
35248;BME280;21380;52.194;20.520;2023-05-07T01:10:12;101153.19;;;17.81;52.91
35248;BME280;21380;52.194;20.520;2023-05-07T01:12:39;101145.31;;;17.78;52.88
35248;BME280;21380;52.194;20.520;2023-05-07T01:15:07;101157.59;;;17.83;52.86
35248;BME280;21380;52.194;20.520;2023-05-07T01:17:34;101153.22;;;17.82;52.91
35248;BME280;21380;52.194;20.520;2023-05-07T01:20:01;101139.13;;;17.74;52.85
35248;BME280;21380;52.194;20.520;2023-05-07T01:22:40;101149.72;;;17.82;52.90
35248;BME280;21380;52.194;20.520;2023-05-07T01:25:07;101132.94;;;17.69;52.81
35248;BME280;21380;52.194;20.520;2023-05-07T01:27:34;101142.69;;;17.78;52.80
35248;BME280;21380;52.194;20.520;2023-05-07T01:30:01;101146.16;;;17.77;52.88
35248;BME280;21380;52.194;20.520;2023-05-07T01:35:19;101139.03;;;17.71;52.62
35248;BME280;21380;52.194;20.520;2023-05-07T01:37:46;101153.13;;;17.78;52.89
35248;BME280;21380;52.194;20.520;2023-05-07T01:40:13;101148.75;;;17.77;52.84
35248;BME280;21380;52.194;20.520;2023-05-07T01:42:41;101147.91;;;17.78;52.88
35248;BME280;21380;52.194;20.520;2023-05-07T01:45:09;101143.44;;;17.74;52.94
35248;BME280;21380;52.194;20.520;2023-05-07T01:47:36;101147.81;;;17.75;52.92
35248;BME280;21380;52.194;20.520;2023-05-07T01:50:03;101157.44;;;17.77;53.00
35248;BME280;21380;52.194;20.520;2023-05-07T01:52:29;101148.63;;;17.71;52.83
35248;BME280;21380;52.194;20.520;2023-05-07T01:54:55;101155.50;;;17.69;52.87
35248;BME280;21380;52.194;20.520;2023-05-07T01:57:21;101158.25;;;17.75;52.76
35248;BME280;21380;52.194;20.520;2023-05-07T01:59:47;101160.00;;;17.74;52.79
35248;BME280;21380;52.194;20.520;2023-05-07T02:02:13;101162.63;;;17.74;52.82
35248;BME280;21380;52.194;20.520;2023-05-07T02:04:39;101163.47;;;17.75;52.99
35248;BME280;21380;52.194;20.520;2023-05-07T02:07:04;101170.44;;;17.74;52.92
35248;BME280;21380;52.194;20.520;2023-05-07T02:09:30;101151.09;;;17.64;52.99
35248;BME280;21380;52.194;20.520;2023-05-07T02:11:56;101166.06;;;17.73;52.92
35248;BME280;21380;52.194;20.520;2023-05-07T02:14:22;101154.66;;;17.68;53.04
35248;BME280;21380;52.194;20.520;2023-05-07T02:16:48;101158.91;;;17.64;53.06
35248;BME280;21380;52.194;20.520;2023-05-07T02:19:14;101153.72;;;17.66;52.73
35248;BME280;21380;52.194;20.520;2023-05-07T02:21:40;101153.81;;;17.69;52.78
35248;BME280;21380;52.194;20.520;2023-05-07T02:24:06;101164.28;;;17.72;52.84
35248;BME280;21380;52.194;20.520;2023-05-07T02:26:31;101165.94;;;17.69;52.73
35248;BME280;21380;52.194;20.520;2023-05-07T02:28:57;101155.44;;;17.64;52.52
35248;BME280;21380;52.194;20.520;2023-05-07T02:31:23;101172.13;;;17.72;52.90
35248;BME280;21380;52.194;20.520;2023-05-07T02:33:49;101179.09;;;17.72;52.78
35248;BME280;21380;52.194;20.520;2023-05-07T02:36:15;101170.34;;;17.71;52.76
35248;BME280;21380;52.194;20.520;2023-05-07T02:38:41;101171.13;;;17.67;52.71
35248;BME280;21380;52.194;20.520;2023-05-07T02:41:07;101176.38;;;17.69;52.73
35248;BME280;21380;52.194;20.520;2023-05-07T02:43:33;101164.91;;;17.60;52.88
35248;BME280;21380;52.194;20.520;2023-05-07T02:46:06;101187.75;;;17.71;52.65
35248;BME280;21380;52.194;20.520;2023-05-07T02:48:32;101181.63;;;17.70;52.78
35248;BME280;21380;52.194;20.520;2023-05-07T02:50:59;101185.16;;;17.71;52.58
35248;BME280;21380;52.194;20.520;2023-05-07T02:53:26;101177.31;;;17.71;52.75
35248;BME280;21380;52.194;20.520;2023-05-07T02:55:56;101181.63;;;17.70;52.76
35248;BME280;21380;52.194;20.520;2023-05-07T02:58:23;101152.59;;;17.55;52.79
35248;BME280;21380;52.194;20.520;2023-05-07T03:00:48;101169.22;;;17.60;52.73
35248;BME280;21380;52.194;20.520;2023-05-07T03:03:15;101187.72;;;17.69;52.75
35248;BME280;21380;52.194;20.520;2023-05-07T03:05:40;101185.94;;;17.66;52.80
35248;BME280;21380;52.194;20.520;2023-05-07T03:08:07;101186.81;;;17.69;52.57
35248;BME280;21380;52.194;20.520;2023-05-07T03:10:33;101192.03;;;17.69;52.67
35248;BME280;21380;52.194;20.520;2023-05-07T03:13:01;101196.41;;;17.68;52.63
35248;BME280;21380;52.194;20.520;2023-05-07T03:15:26;101178.78;;;17.59;52.35
35248;BME280;21380;52.194;20.520;2023-05-07T03:17:52;101184.00;;;17.59;52.95
35248;BME280;21380;52.194;20.520;2023-05-07T03:20:18;101202.44;;;17.67;52.52
35248;BME280;21380;52.194;20.520;2023-05-07T03:22:44;101204.19;;;17.66;52.58
35248;BME280;21380;52.194;20.520;2023-05-07T03:25:10;101201.59;;;17.66;52.46
35248;BME280;21380;52.194;20.520;2023-05-07T03:27:36;101196.25;;;17.62;52.53
35248;BME280;21380;52.194;20.520;2023-05-07T03:30:03;101212.03;;;17.66;52.61
35248;BME280;21380;52.194;20.520;2023-05-07T03:32:30;101187.31;;;17.52;52.73
35248;BME280;21380;52.194;20.520;2023-05-07T03:34:55;101221.56;;;17.66;52.48
35248;BME280;21380;52.194;20.520;2023-05-07T03:37:21;101203.13;;;17.58;52.50
35248;BME280;21380;52.194;20.520;2023-05-07T03:39:47;101207.34;;;17.53;52.71
35248;BME280;21380;52.194;20.520;2023-05-07T03:42:15;101217.97;;;17.62;52.59
35248;BME280;21380;52.194;20.520;2023-05-07T03:44:40;101203.75;;;17.48;52.51
35248;BME280;21380;52.194;20.520;2023-05-07T03:47:06;101223.13;;;17.58;52.68
35248;BME280;21380;52.194;20.520;2023-05-07T03:49:33;101211.72;;;17.54;52.35
35248;BME280;21380;52.194;20.520;2023-05-07T03:51:59;101232.81;;;17.63;52.44
35248;BME280;21380;52.194;20.520;2023-05-07T03:54:24;101215.19;;;17.55;52.62
35248;BME280;21380;52.194;20.520;2023-05-07T03:56:50;101236.25;;;17.62;52.43
35248;BME280;21380;52.194;20.520;2023-05-07T03:59:16;101233.63;;;17.62;52.48
35248;BME280;21380;52.194;20.520;2023-05-07T04:01:42;101238.00;;;17.62;52.61
35248;BME280;21380;52.194;20.520;2023-05-07T04:04:08;101241.47;;;17.62;52.61
35248;BME280;21380;52.194;20.520;2023-05-07T04:06:34;101236.91;;;17.54;52.53
35248;BME280;21380;52.194;20.520;2023-05-07T04:08:59;101232.66;;;17.57;52.51
35248;BME280;21380;52.194;20.520;2023-05-07T04:11:26;101239.59;;;17.57;52.48
35248;BME280;21380;52.194;20.520;2023-05-07T04:13:51;101246.50;;;17.55;52.63
35248;BME280;21380;52.194;20.520;2023-05-07T04:16:17;101254.47;;;17.61;52.58
35248;BME280;21380;52.194;20.520;2023-05-07T04:18:43;101256.13;;;17.57;52.57
35248;BME280;21380;52.194;20.520;2023-05-07T04:21:16;101258.84;;;17.60;52.46
35248;BME280;21380;52.194;20.520;2023-05-07T04:23:42;101241.09;;;17.47;52.63
35248;BME280;21380;52.194;20.520;2023-05-07T04:26:09;101257.75;;;17.52;52.80
35248;BME280;21380;52.194;20.520;2023-05-07T04:28:35;101263.94;;;17.56;52.56
35248;BME280;21380;52.194;20.520;2023-05-07T04:31:01;101277.94;;;17.59;52.28
35248;BME280;21380;52.194;20.520;2023-05-07T04:33:27;101269.19;;;17.59;52.52
35248;BME280;21380;52.194;20.520;2023-05-07T04:35:53;101276.16;;;17.58;52.40
35248;BME280;21380;52.194;20.520;2023-05-07T04:38:18;101270.94;;;17.58;52.52
35248;BME280;21380;52.194;20.520;2023-05-07T04:40:45;101262.94;;;17.50;52.46
35248;BME280;21380;52.194;20.520;2023-05-07T04:43:11;101261.13;;;17.48;52.49
35248;BME280;21380;52.194;20.520;2023-05-07T04:45:37;101265.41;;;17.46;52.46
35248;BME280;21380;52.194;20.520;2023-05-07T04:48:05;101279.44;;;17.51;52.45
35248;BME280;21380;52.194;20.520;2023-05-07T04:50:31;101300.50;;;17.59;52.46
35248;BME280;21380;52.194;20.520;2023-05-07T04:52:57;101276.84;;;17.51;52.41
35248;BME280;21380;52.194;20.520;2023-05-07T04:55:23;101286.38;;;17.49;52.38
35248;BME280;21380;52.194;20.520;2023-05-07T04:57:48;101277.69;;;17.50;52.51
35248;BME280;21380;52.194;20.520;2023-05-07T05:00:15;101291.72;;;17.55;52.29
35248;BME280;21380;52.194;20.520;2023-05-07T05:02:42;101295.25;;;17.57;52.46
35248;BME280;21380;52.194;20.520;2023-05-07T05:05:08;101284.63;;;17.49;52.50
35248;BME280;21380;52.194;20.520;2023-05-07T05:07:34;101301.38;;;17.58;52.41
35248;BME280;21380;52.194;20.520;2023-05-07T05:10:02;101292.63;;;17.56;52.52
35248;BME280;21380;52.194;20.520;2023-05-07T05:12:29;101284.63;;;17.49;52.57
35248;BME280;21380;52.194;20.520;2023-05-07T05:14:55;101304.03;;;17.59;52.42
35248;BME280;21380;52.194;20.520;2023-05-07T05:17:21;101288.19;;;17.52;52.69
35248;BME280;21380;52.194;20.520;2023-05-07T05:19:47;101306.63;;;17.59;52.57
35248;BME280;21380;52.194;20.520;2023-05-07T05:22:13;101293.25;;;17.47;52.50
35248;BME280;21380;52.194;20.520;2023-05-07T05:24:39;101295.09;;;17.51;52.55
35248;BME280;21380;52.194;20.520;2023-05-07T05:27:05;101317.06;;;17.59;52.64
35248;BME280;21380;52.194;20.520;2023-05-07T05:29:31;101300.34;;;17.53;52.55
35248;BME280;21380;52.194;20.520;2023-05-07T05:31:57;101313.53;;;17.57;53.04
35248;BME280;21380;52.194;20.520;2023-05-07T05:34:23;101317.97;;;17.61;52.52
35248;BME280;21380;52.194;20.520;2023-05-07T05:36:49;101305.78;;;17.60;52.61
35248;BME280;21380;52.194;20.520;2023-05-07T05:39:15;101305.78;;;17.60;52.64
35248;BME280;21380;52.194;20.520;2023-05-07T05:41:41;101296.88;;;17.52;52.62
35248;BME280;21380;52.194;20.520;2023-05-07T05:44:07;101303.03;;;17.54;52.57
35248;BME280;21380;52.194;20.520;2023-05-07T05:46:32;101317.91;;;17.58;52.73
35248;BME280;21380;52.194;20.520;2023-05-07T05:48:58;101323.19;;;17.61;52.74
35248;BME280;21380;52.194;20.520;2023-05-07T05:51:25;101318.72;;;17.56;52.63
35248;BME280;21380;52.194;20.520;2023-05-07T05:53:52;101323.25;;;17.63;52.75
35248;BME280;21380;52.194;20.520;2023-05-07T05:56:17;101309.09;;;17.55;52.87
35248;BME280;21380;52.194;20.520;2023-05-07T05:58:44;101329.34;;;17.63;52.74
35248;BME280;21380;52.194;20.520;2023-05-07T06:01:10;101317.88;;;17.57;52.72
35248;BME280;21380;52.194;20.520;2023-05-07T06:03:37;101322.25;;;17.58;52.67
35248;BME280;21380;52.194;20.520;2023-05-07T06:06:03;101320.47;;;17.57;52.73
35248;BME280;21380;52.194;20.520;2023-05-07T06:08:29;101345.94;;;17.65;52.77
35248;BME280;21380;52.194;20.520;2023-05-07T06:10:56;101338.13;;;17.67;52.73
35248;BME280;21380;52.194;20.520;2023-05-07T06:13:22;101356.44;;;17.69;52.88
35248;BME280;21380;52.194;20.520;2023-05-07T06:15:49;101348.41;;;17.61;52.84
35248;BME280;21380;52.194;20.520;2023-05-07T06:18:15;101364.28;;;17.70;52.64
35248;BME280;21380;52.194;20.520;2023-05-07T06:20:41;101344.06;;;17.61;52.74
35248;BME280;21380;52.194;20.520;2023-05-07T06:23:07;101365.19;;;17.71;52.75
35248;BME280;21380;52.194;20.520;2023-05-07T06:25:33;101342.38;;;17.63;52.58
35248;BME280;21380;52.194;20.520;2023-05-07T06:27:59;101323.97;;;17.57;52.64
35248;BME280;21380;52.194;20.520;2023-05-07T06:30:25;101346.03;;;17.70;52.60
35248;BME280;21380;52.194;20.520;2023-05-07T06:32:52;101348.69;;;17.72;52.63
35248;BME280;21380;52.194;20.520;2023-05-07T06:35:18;101348.72;;;17.73;52.56
35248;BME280;21380;52.194;20.520;2023-05-07T06:37:44;101347.78;;;17.71;52.65
35248;BME280;21380;52.194;20.520;2023-05-07T06:40:10;101353.06;;;17.73;52.78
35248;BME280;21380;52.194;20.520;2023-05-07T06:42:37;101355.69;;;17.73;52.84
35248;BME280;21380;52.194;20.520;2023-05-07T06:45:03;101339.75;;;17.62;52.75
35248;BME280;21380;52.194;20.520;2023-05-07T06:47:30;101354.63;;;17.66;52.80
35248;BME280;21380;52.194;20.520;2023-05-07T06:49:56;101368.75;;;17.73;52.56
35248;BME280;21380;52.194;20.520;2023-05-07T06:52:22;101362.66;;;17.74;52.67
35248;BME280;21380;52.194;20.520;2023-05-07T06:54:48;101366.06;;;17.71;52.73
35248;BME280;21380;52.194;20.520;2023-05-07T06:57:14;101353.81;;;17.69;52.71
35248;BME280;21380;52.194;20.520;2023-05-07T06:59:39;101342.34;;;17.62;52.95
35248;BME280;21380;52.194;20.520;2023-05-07T07:02:06;101365.25;;;17.74;53.00
35248;BME280;21380;52.194;20.520;2023-05-07T07:04:31;101376.66;;;17.77;52.81
35248;BME280;21380;52.194;20.520;2023-05-07T07:06:57;101367.94;;;17.75;52.81
35248;BME280;21380;52.194;20.520;2023-05-07T07:09:23;101360.81;;;17.70;52.82
35248;BME280;21380;52.194;20.520;2023-05-07T07:11:49;101377.59;;;17.79;52.95
35248;BME280;21380;52.194;20.520;2023-05-07T07:14:15;101369.44;;;17.67;52.80
35248;BME280;21380;52.194;20.520;2023-05-07T07:16:41;101373.97;;;17.73;52.91
35248;BME280;21380;52.194;20.520;2023-05-07T07:19:07;101382.69;;;17.75;52.75
35248;BME280;21380;52.194;20.520;2023-05-07T07:21:34;101376.63;;;17.76;52.81
35248;BME280;21380;52.194;20.520;2023-05-07T07:23:59;101373.25;;;17.80;52.89
35248;BME280;21380;52.194;20.520;2023-05-07T07:26:26;101387.19;;;17.80;52.81
35248;BME280;21380;52.194;20.520;2023-05-07T07:28:51;101387.22;;;17.82;52.76
35248;BME280;21380;52.194;20.520;2023-05-07T07:31:17;101376.59;;;17.74;52.81
35248;BME280;21380;52.194;20.520;2023-05-07T07:33:43;101382.00;;;17.82;52.91
35248;BME280;21380;52.194;20.520;2023-05-07T07:36:09;101382.94;;;17.84;52.92
35248;BME280;21380;52.194;20.520;2023-05-07T07:38:35;101393.41;;;17.86;52.93
35248;BME280;21380;52.194;20.520;2023-05-07T07:41:01;101385.59;;;17.86;52.82
35248;BME280;21380;52.194;20.520;2023-05-07T07:43:27;101384.75;;;17.87;52.86
35248;BME280;21380;52.194;20.520;2023-05-07T07:45:54;101383.81;;;17.85;52.82
35248;BME280;21380;52.194;20.520;2023-05-07T07:48:20;101384.66;;;17.83;52.69
35248;BME280;21380;52.194;20.520;2023-05-07T07:50:48;101398.66;;;17.87;52.67
35248;BME280;21380;52.194;20.520;2023-05-07T07:53:14;101398.66;;;17.87;52.76
35248;BME280;21380;52.194;20.520;2023-05-07T07:55:40;101399.53;;;17.88;52.63
35248;BME280;21380;52.194;20.520;2023-05-07T07:58:06;101400.44;;;17.88;52.57
35248;BME280;21380;52.194;20.520;2023-05-07T08:00:32;101404.75;;;17.88;52.49
35248;BME280;21380;52.194;20.520;2023-05-07T08:02:58;101394.19;;;17.81;52.75
35248;BME280;21380;52.194;20.520;2023-05-07T08:05:24;101390.72;;;17.82;52.60
35248;BME280;21380;52.194;20.520;2023-05-07T08:07:50;101403.72;;;17.81;52.52
35248;BME280;21380;52.194;20.520;2023-05-07T08:10:19;101403.88;;;17.87;52.58
35248;BME280;21380;52.194;20.520;2023-05-07T08:12:49;101416.97;;;17.89;52.69
35248;BME280;21380;52.194;20.520;2023-05-07T08:15:16;101410.91;;;17.90;52.66
35248;BME280;21380;52.194;20.520;2023-05-07T08:17:42;101412.69;;;17.91;52.83
35248;BME280;21380;52.194;20.520;2023-05-07T08:20:09;101396.88;;;17.85;52.70
35248;BME280;21380;52.194;20.520;2023-05-07T08:22:35;101409.94;;;17.86;52.56
35248;BME280;21380;52.194;20.520;2023-05-07T08:25:02;101417.06;;;17.92;52.54
35248;BME280;21380;52.194;20.520;2023-05-07T08:27:28;101388.88;;;17.78;52.75
35248;BME280;21380;52.194;20.520;2023-05-07T08:29:54;101405.56;;;17.85;52.53
35248;BME280;21380;52.194;20.520;2023-05-07T08:32:21;101418.00;;;17.94;52.51
35248;BME280;21380;52.194;20.520;2023-05-07T08:34:47;101422.28;;;17.92;52.46
35248;BME280;21380;52.194;20.520;2023-05-07T08:37:13;101433.72;;;17.95;52.44
35248;BME280;21380;52.194;20.520;2023-05-07T08:39:39;101420.47;;;17.89;52.54
35248;BME280;21380;52.194;20.520;2023-05-07T08:42:06;101419.72;;;17.93;52.57
35248;BME280;21380;52.194;20.520;2023-05-07T08:44:33;101438.16;;;17.98;52.54
35248;BME280;21380;52.194;20.520;2023-05-07T08:47:06;101438.06;;;17.95;52.30
35248;BME280;21380;52.194;20.520;2023-05-07T08:49:33;101424.94;;;17.93;52.50
35248;BME280;21380;52.194;20.520;2023-05-07T08:51:59;101428.50;;;17.95;52.41
35248;BME280;21380;52.194;20.520;2023-05-07T08:54:26;101441.72;;;18.02;52.56
35248;BME280;21380;52.194;20.520;2023-05-07T08:56:53;101416.06;;;17.87;52.45
35248;BME280;21380;52.194;20.520;2023-05-07T08:59:19;101438.25;;;18.03;52.40
35248;BME280;21380;52.194;20.520;2023-05-07T09:01:45;101418.84;;;17.93;52.49
35248;BME280;21380;52.194;20.520;2023-05-07T09:04:11;101440.00;;;18.02;52.42
35248;BME280;21380;52.194;20.520;2023-05-07T09:06:38;101439.16;;;18.03;52.36
35248;BME280;21380;52.194;20.520;2023-05-07T09:09:07;101432.97;;;17.99;52.45
35248;BME280;21380;52.194;20.520;2023-05-07T09:11:33;101431.22;;;18.00;52.37
35248;BME280;21380;52.194;20.520;2023-05-07T09:13:59;101419.78;;;17.95;52.49
35248;BME280;21380;52.194;20.520;2023-05-07T09:16:29;101441.78;;;18.05;52.35
35248;BME280;21380;52.194;20.520;2023-05-07T09:18:58;101441.72;;;18.02;52.15
35248;BME280;21380;52.194;20.520;2023-05-07T09:21:24;101447.81;;;18.02;51.90
35248;BME280;21380;52.194;20.520;2023-05-07T09:23:52;101451.41;;;18.06;52.09
35248;BME280;21380;52.194;20.520;2023-05-07T09:26:21;101449.72;;;18.08;52.03
35248;BME280;21380;52.194;20.520;2023-05-07T09:28:48;101441.75;;;18.03;52.18
35248;BME280;21380;52.194;20.520;2023-05-07T09:31:13;101432.72;;;17.92;52.22
35248;BME280;21380;52.194;20.520;2023-05-07T09:33:40;101434.44;;;17.91;52.13
35248;BME280;21380;52.194;20.520;2023-05-07T09:36:07;101453.88;;;18.01;51.91
35248;BME280;21380;52.194;20.520;2023-05-07T09:38:36;101453.81;;;17.98;51.88
35248;BME280;21380;52.194;20.520;2023-05-07T09:41:05;101464.31;;;18.01;52.04
35248;BME280;21380;52.194;20.520;2023-05-07T09:43:32;101456.50;;;18.01;52.17
35248;BME280;21380;52.194;20.520;2023-05-07T09:46:03;101466.13;;;18.04;51.95
35248;BME280;21380;52.194;20.520;2023-05-07T09:48:30;101475.75;;;18.06;51.88
35248;BME280;21380;52.194;20.520;2023-05-07T09:50:57;101455.50;;;17.96;51.96
35248;BME280;21380;52.194;20.520;2023-05-07T09:53:27;101472.19;;;18.03;52.13
35248;BME280;21380;52.194;20.520;2023-05-07T09:55:54;101479.28;;;18.07;52.08
35248;BME280;21380;52.194;20.520;2023-05-07T09:58:22;101472.13;;;17.99;52.07
35248;BME280;21380;52.194;20.520;2023-05-07T10:00:49;101489.72;;;18.07;51.94
35248;BME280;21380;52.194;20.520;2023-05-07T10:03:16;101483.59;;;18.06;51.97
35248;BME280;21380;52.194;20.520;2023-05-07T10:05:43;101486.22;;;18.06;52.12
35248;BME280;21380;52.194;20.520;2023-05-07T10:08:10;101481.72;;;18.01;51.86
35248;BME280;21380;52.194;20.520;2023-05-07T10:10:36;101484.50;;;18.07;51.85
35248;BME280;21380;52.194;20.520;2023-05-07T10:13:03;101465.72;;;17.90;51.75
35248;BME280;21380;52.194;20.520;2023-05-07T10:15:31;101455.31;;;17.91;51.83
35248;BME280;21380;52.194;20.520;2023-05-07T10:17:57;101485.25;;;18.03;51.41
35248;BME280;21380;52.194;20.520;2023-05-07T10:20:24;101498.41;;;18.06;51.50
35248;BME280;21380;52.194;20.520;2023-05-07T10:22:54;101491.34;;;18.02;51.80
35248;BME280;21380;52.194;20.520;2023-05-07T10:25:25;101486.94;;;18.01;51.94
35248;BME280;21380;52.194;20.520;2023-05-07T10:27:53;101498.41;;;18.06;51.69
35248;BME280;21380;52.194;20.520;2023-05-07T10:33:11;101497.56;;;18.07;51.46
35248;BME280;21380;52.194;20.520;2023-05-07T10:35:41;101499.25;;;18.06;51.72
35248;BME280;21380;52.194;20.520;2023-05-07T10:38:09;101494.81;;;18.02;51.73
35248;BME280;21380;52.194;20.520;2023-05-07T10:40:35;101499.25;;;18.06;51.50
35248;BME280;21380;52.194;20.520;2023-05-07T10:43:04;101502.78;;;18.07;51.63
35248;BME280;21380;52.194;20.520;2023-05-07T10:45:31;101495.66;;;18.01;51.63
35248;BME280;21380;52.194;20.520;2023-05-07T10:50:41;101494.00;;;18.05;51.78
35248;BME280;21380;52.194;20.520;2023-05-07T10:53:20;101504.56;;;18.08;51.48
35248;BME280;21380;52.194;20.520;2023-05-07T11:00:46;101520.25;;;18.09;51.45
35248;BME280;21380;52.194;20.520;2023-05-07T11:03:13;101502.69;;;18.04;51.59
35248;BME280;21380;52.194;20.520;2023-05-07T11:05:41;101505.38;;;18.07;50.85
35248;BME280;21380;52.194;20.520;2023-05-07T11:08:08;101480.56;;;17.91;51.40
35248;BME280;21380;52.194;20.520;2023-05-07T11:10:56;101508.97;;;18.10;51.53
35248;BME280;21380;52.194;20.520;2023-05-07T11:16:22;101512.47;;;18.11;51.76
35248;BME280;21380;52.194;20.520;2023-05-07T11:18:56;101519.16;;;17.40;48.20
35248;BME280;21380;52.194;20.520;2023-05-07T11:21:41;101515.84;;;15.64;50.90
35248;BME280;21380;52.194;20.520;2023-05-07T11:24:08;101527.22;;;15.22;51.33
35248;BME280;21380;52.194;20.520;2023-05-07T11:26:45;101524.22;;;15.11;51.19
35248;BME280;21380;52.194;20.520;2023-05-07T11:29:12;101524.91;;;15.75;50.67
35248;BME280;21380;52.194;20.520;2023-05-07T11:31:38;101533.28;;;16.15;49.92
35248;BME280;21380;52.194;20.520;2023-05-07T11:34:05;101535.09;;;16.42;49.79
35248;BME280;21380;52.194;20.520;2023-05-07T11:36:32;101526.97;;;16.58;49.64
35248;BME280;21380;52.194;20.520;2023-05-07T11:38:58;101527.44;;;16.74;49.02
35248;BME280;21380;52.194;20.520;2023-05-07T11:41:37;101537.69;;;16.93;48.62
35248;BME280;21380;52.194;20.520;2023-05-07T11:44:03;101544.13;;;17.05;48.41
35248;BME280;21380;52.194;20.520;2023-05-07T11:46:29;101540.91;;;17.13;48.48
35248;BME280;21380;52.194;20.520;2023-05-07T11:48:56;101533.25;;;17.18;48.29
35248;BME280;21380;52.194;20.520;2023-05-07T11:51:24;101536.88;;;17.23;48.31
35248;BME280;21380;52.194;20.520;2023-05-07T11:53:52;101533.53;;;17.27;48.24
35248;BME280;21380;52.194;20.520;2023-05-07T11:56:19;101546.94;;;17.40;48.17
35248;BME280;21380;52.194;20.520;2023-05-07T11:58:46;101524.25;;;17.37;48.17
35248;BME280;21380;52.194;20.520;2023-05-07T12:01:14;101522.59;;;17.39;48.18
35248;BME280;21380;52.194;20.520;2023-05-07T12:03:42;101540.31;;;17.51;48.35
35248;BME280;21380;52.194;20.520;2023-05-07T12:06:09;101540.44;;;17.54;47.98
35248;BME280;21380;52.194;20.520;2023-05-07T12:08:40;101544.06;;;17.59;48.43
35248;BME280;21380;52.194;20.520;2023-05-07T12:11:08;101551.13;;;17.63;48.13
35248;BME280;21380;52.194;20.520;2023-05-07T12:13:35;101530.97;;;17.58;48.27
35248;BME280;21380;52.194;20.520;2023-05-07T12:16:01;101543.44;;;17.68;48.36
35248;BME280;21380;52.194;20.520;2023-05-07T12:18:29;101540.88;;;17.70;48.42
35248;BME280;21380;52.194;20.520;2023-05-07T12:20:55;101546.19;;;17.73;48.30
35248;BME280;21380;52.194;20.520;2023-05-07T12:23:22;101553.16;;;17.74;48.39
35248;BME280;21380;52.194;20.520;2023-05-07T12:25:48;101551.47;;;17.76;48.52
35248;BME280;21380;52.194;20.520;2023-05-07T12:28:15;101553.22;;;17.75;48.32
35248;BME280;21380;52.194;20.520;2023-05-07T12:30:46;101541.00;;;17.74;48.64
35248;BME280;21380;52.194;20.520;2023-05-07T12:33:24;101554.28;;;17.82;48.35
35248;BME280;21380;52.194;20.520;2023-05-07T12:35:50;101545.38;;;17.75;48.83
35248;BME280;21380;52.194;20.520;2023-05-07T12:38:17;101548.22;;;17.83;48.50
35248;BME280;21380;52.194;20.520;2023-05-07T12:40:45;101538.50;;;17.79;48.59
35248;BME280;21380;52.194;20.520;2023-05-07T12:43:24;101553.53;;;17.88;48.73
35248;BME280;21380;52.194;20.520;2023-05-07T12:45:53;101547.44;;;17.87;48.62
35248;BME280;21380;52.194;20.520;2023-05-07T12:48:20;101551.84;;;17.88;48.64
35248;BME280;21380;52.194;20.520;2023-05-07T12:50:53;101541.28;;;17.85;48.45
35248;BME280;21380;52.194;20.520;2023-05-07T12:53:21;101558.03;;;17.92;48.57
35248;BME280;21380;52.194;20.520;2023-05-07T12:55:50;101552.81;;;17.92;48.64